Time;durP1;ratioP1;P1;durP2;ratioP2;P2;SDS_P1;SDS_P2;PMS_P1;PMS_P2;Temp;Humidity;BMP_temperature;BMP_pressure;BME280_temperature;BME280_humidity;BME280_pressure;Samples;Min_cycle;Max_cycle;Signal;HPM_P1;HPM_P2
2021/06/07 00:02:07;;;;;;;8.93;4.55;;;18.10;99.90;;;;;;4877400;29;20061;-88
2021/06/07 00:04:35;;;;;;;5.78;3.72;;;18.10;99.90;;;;;;4887556;29;20060;-87
2021/06/07 00:07:07;;;;;;;6.47;4.00;;;18.00;99.90;;;;;;4895041;29;20505;-88
2021/06/07 00:09:36;;;;;;;7.63;3.75;;;16.50;99.90;;;;;;4877725;29;20048;-88
2021/06/07 00:12:09;;;;;;;15.90;4.50;;;18.00;99.90;;;;;;4873531;29;20053;-89
2021/06/07 00:14:37;;;;;;;7.93;4.55;;;17.90;99.90;;;;;;4865709;29;20060;-88
2021/06/07 00:17:06;;;;;;;7.57;3.83;;;17.90;99.90;;;;;;4891728;29;20465;-88
2021/06/07 00:19:36;;;;;;;5.63;3.80;;;17.80;99.90;;;;;;4882974;29;20056;-88
2021/06/07 00:22:05;;;;;;;6.25;3.60;;;17.80;99.90;;;;;;4865122;29;20056;-88
2021/06/07 00:24:34;;;;;;;7.40;4.55;;;17.70;99.90;;;;;;4894580;29;20076;-88
2021/06/07 00:27:03;;;;;;;8.48;4.18;;;17.70;99.90;;;;;;4894597;29;20277;-88
2021/06/07 00:29:32;;;;;;;8.15;3.53;;;17.70;99.90;;;;;;4878786;29;20053;-87
2021/06/07 00:32:05;;;;;;;7.38;3.83;;;17.70;99.90;;;;;;4893669;29;20076;-87
2021/06/07 00:34:33;;;;;;;6.68;3.78;;;17.70;99.90;;;;;;4885340;29;20044;-89
2021/06/07 00:37:01;;;;;;;9.27;3.67;;;17.70;99.90;;;;;;4894033;29;20052;-88
2021/06/07 00:39:29;;;;;;;6.63;4.65;;;17.70;99.90;;;;;;4894060;29;20064;-88
2021/06/07 00:41:56;;;;;;;4.82;3.20;;;17.70;99.90;;;;;;4874415;29;20049;-88
2021/06/07 00:44:24;;;;;;;7.90;4.20;;;17.70;99.90;;;;;;4871569;29;20044;-88
2021/06/07 00:46:52;;;;;;;8.82;3.78;;;17.70;99.90;;;;;;4876437;29;20530;-88
2021/06/07 00:49:20;;;;;;;6.18;3.65;;;17.70;99.90;;;;;;4882354;29;20063;-88
2021/06/07 00:51:48;;;;;;;6.30;3.45;;;17.70;99.90;;;;;;4874197;29;20060;-88
2021/06/07 00:54:16;;;;;;;7.50;3.80;;;17.70;99.90;;;;;;4886447;29;20068;-88
2021/06/07 00:56:45;;;;;;;6.38;3.47;;;17.70;99.90;;;;;;4871523;29;20063;-87
2021/06/07 00:59:13;;;;;;;9.00;4.22;;;17.60;99.90;;;;;;4876242;29;20080;-87
2021/06/07 01:01:42;;;;;;;8.73;3.90;;;17.60;99.90;;;;;;4876545;29;20045;-87
2021/06/07 01:04:10;;;;;;;10.93;4.82;;;17.60;99.90;;;;;;4899399;29;20508;-86
2021/06/07 01:06:38;;;;;;;8.27;4.15;;;17.50;99.90;;;;;;4897731;29;20412;-88
2021/06/07 01:09:07;;;;;;;6.70;3.28;;;17.50;99.90;;;;;;4861475;29;20656;-87
2021/06/07 01:11:36;;;;;;;5.32;3.08;;;17.50;99.90;;;;;;4875626;29;20061;-88
2021/06/07 01:14:05;;;;;;;5.05;3.10;;;17.50;99.90;;;;;;4892604;29;20059;-87
2021/06/07 01:16:34;;;;;;;6.30;4.13;;;17.40;99.90;;;;;;4893697;29;20068;-87
2021/06/07 01:19:06;;;;;;;7.35;3.35;;;17.40;99.90;;;;;;4893443;29;20049;-87
2021/06/07 01:21:34;;;;;;;6.60;3.85;;;17.40;99.90;;;;;;4881552;29;20079;-88
2021/06/07 01:24:02;;;;;;;8.25;4.03;;;17.30;99.90;;;;;;4882023;29;20059;-86
2021/06/07 01:26:30;;;;;;;5.47;3.15;;;17.30;99.90;;;;;;4864682;29;20063;-87
2021/06/07 01:28:58;;;;;;;6.47;3.33;;;17.30;99.90;;;;;;4872517;29;20056;-88
2021/06/07 01:31:26;;;;;;;5.65;3.45;;;17.30;99.90;;;;;;4860764;29;20056;-88
2021/06/07 01:33:55;;;;;;;6.03;3.38;;;17.20;99.90;;;;;;4894518;29;20052;-88
2021/06/07 01:36:24;;;;;;;7.30;4.15;;;17.20;99.90;;;;;;4878012;29;20174;-88
2021/06/07 01:38:52;;;;;;;7.32;3.80;;;17.20;99.90;;;;;;4893358;29;20056;-88
2021/06/07 01:41:20;;;;;;;5.18;2.95;;;17.20;99.90;;;;;;4893151;29;20209;-87
2021/06/07 01:43:48;;;;;;;5.28;3.55;;;17.20;99.90;;;;;;4885767;29;20065;-88
2021/06/07 01:46:16;;;;;;;7.63;3.67;;;17.10;99.90;;;;;;4888947;29;20049;-88
2021/06/07 01:48:44;;;;;;;5.85;3.45;;;17.10;99.90;;;;;;4903838;29;20076;-88
2021/06/07 01:51:12;;;;;;;5.57;3.85;;;17.10;99.90;;;;;;4871915;29;20053;-87
2021/06/07 01:53:40;;;;;;;7.93;3.92;;;17.00;99.90;;;;;;4877925;29;20049;-87
2021/06/07 01:56:09;;;;;;;8.82;4.72;;;17.00;99.90;;;;;;4878863;29;20060;-88
2021/06/07 01:58:38;;;;;;;5.63;3.17;;;16.90;99.90;;;;;;4894857;29;20044;-88
2021/06/07 02:01:12;;;;;;;6.25;3.33;;;16.90;99.90;;;;;;4894802;29;20485;-88
2021/06/07 02:03:41;;;;;;;6.45;4.22;;;16.80;99.90;;;;;;4896977;29;20052;-87
2021/06/07 02:06:11;;;;;;;8.35;3.47;;;16.70;99.90;;;;;;4899745;29;20060;-87
2021/06/07 02:08:40;;;;;;;9.75;4.00;;;16.70;99.90;;;;;;4894157;29;20052;-87
2021/06/07 02:11:27;;;;;;;8.18;4.25;;;16.70;99.90;;;;;;4863980;29;20056;-88
2021/06/07 02:13:58;;;;;;;11.07;5.55;;;16.70;99.90;;;;;;4897100;29;20052;-88
2021/06/07 02:16:32;;;;;;;9.48;4.20;;;16.70;99.90;;;;;;4881058;29;20142;-89
2021/06/07 02:19:02;;;;;;;9.38;4.68;;;16.60;99.90;;;;;;4882791;29;20057;-87
2021/06/07 02:21:30;;;;;;;12.30;5.65;;;16.60;99.90;;;;;;4884802;29;20056;-88
2021/06/07 02:23:58;;;;;;;7.85;3.75;;;16.30;99.90;;;;;;4880084;29;20052;-88
2021/06/07 02:26:27;;;;;;;9.18;4.80;;;16.50;99.90;;;;;;4860686;29;20569;-88
2021/06/07 02:29:00;;;;;;;6.22;3.95;;;16.50;99.90;;;;;;4870375;29;20053;-88
2021/06/07 02:31:28;;;;;;;9.27;3.90;;;16.40;99.90;;;;;;4876986;29;20669;-88
2021/06/07 02:34:04;;;;;;;11.30;5.00;;;16.40;99.90;;;;;;4883683;29;20063;-89
2021/06/07 02:36:34;;;;;;;7.05;4.53;;;16.40;99.90;;;;;;4849526;29;20064;-88
2021/06/07 02:39:06;;;;;;;11.27;4.47;;;16.40;99.90;;;;;;4897301;29;20056;-88
2021/06/07 02:41:36;;;;;;;9.05;4.15;;;16.40;99.90;;;;;;4863509;29;20053;-87
2021/06/07 02:44:05;;;;;;;8.80;4.38;;;16.40;99.90;;;;;;4900882;29;20060;-88
2021/06/07 02:46:33;;;;;;;11.32;5.20;;;16.30;99.90;;;;;;4896294;29;20068;-87
2021/06/07 02:49:02;;;;;;;10.63;6.03;;;16.30;99.90;;;;;;4881508;29;20056;-88
2021/06/07 02:51:30;;;;;;;12.88;5.45;;;16.20;99.90;;;;;;4884430;29;20068;-88
2021/06/07 02:53:58;;;;;;;8.18;4.63;;;16.20;99.90;;;;;;4897828;29;20075;-88
2021/06/07 02:56:25;;;;;;;10.25;5.25;;;16.10;99.90;;;;;;4894765;29;20433;-88
2021/06/07 02:58:53;;;;;;;12.75;6.53;;;16.10;99.90;;;;;;4895409;29;20441;-87
2021/06/07 03:01:21;;;;;;;13.38;6.40;;;16.10;99.90;;;;;;4879216;29;20049;-87
2021/06/07 03:03:49;;;;;;;9.40;5.43;;;16.00;99.90;;;;;;4886482;29;20052;-88
2021/06/07 03:06:17;;;;;;;11.45;5.47;;;16.00;99.90;;;;;;4901517;29;20060;-87
2021/06/07 03:08:45;;;;;;;14.82;6.50;;;15.90;99.90;;;;;;4896897;29;20134;-88
2021/06/07 03:11:14;;;;;;;9.60;5.43;;;15.90;99.90;;;;;;4880425;29;20722;-88
2021/06/07 03:13:43;;;;;;;18.15;6.57;;;15.80;99.90;;;;;;4880226;29;20049;-88
2021/06/07 03:16:11;;;;;;;16.33;7.35;;;15.70;99.90;;;;;;4864095;29;20056;-88
2021/06/07 03:18:41;;;;;;;13.40;7.32;;;15.30;99.90;;;;;;4896114;29;20060;-88
2021/06/07 03:21:09;;;;;;;16.05;7.63;;;15.60;99.90;;;;;;4870415;29;20049;-88
2021/06/07 03:23:39;;;;;;;15.75;7.95;;;15.50;99.90;;;;;;4860368;29;20067;-86
2021/06/07 03:26:07;;;;;;;14.30;6.07;;;15.50;99.90;;;;;;4875597;29;20053;-88
2021/06/07 03:28:37;;;;;;;14.48;7.55;;;15.50;99.90;;;;;;4876109;29;20410;-88
2021/06/07 03:31:10;;;;;;;12.40;6.55;;;15.50;99.90;;;;;;4881654;29;20429;-88
2021/06/07 03:33:38;;;;;;;12.98;7.80;;;15.50;99.90;;;;;;4898139;29;20068;-88
2021/06/07 03:36:06;;;;;;;15.52;7.43;;;15.50;99.90;;;;;;4879501;29;20390;-88
2021/06/07 03:38:34;;;;;;;15.20;7.88;;;15.40;99.90;;;;;;4896143;29;20057;-88
2021/06/07 03:41:03;;;;;;;15.45;8.10;;;15.40;99.90;;;;;;4850990;29;20072;-88
2021/06/07 03:43:36;;;;;;;17.40;8.23;;;15.40;99.90;;;;;;4879505;29;20403;-88
2021/06/07 03:46:05;;;;;;;18.52;8.73;;;15.30;99.90;;;;;;4891899;29;20508;-88
2021/06/07 03:48:33;;;;;;;17.30;8.02;;;15.30;99.90;;;;;;4891380;29;20065;-88
2021/06/07 03:51:01;;;;;;;15.48;7.50;;;15.20;99.90;;;;;;4877103;29;20045;-87
2021/06/07 03:53:29;;;;;;;18.05;8.73;;;15.60;99.90;;;;;;4895429;29;20060;-88
2021/06/07 03:55:57;;;;;;;16.75;8.77;;;15.20;99.90;;;;;;4878251;29;20138;-88
2021/06/07 03:58:27;;;;;;;14.65;8.13;;;15.20;99.90;;;;;;4884861;29;20064;-87
2021/06/07 04:00:55;;;;;;;16.13;8.55;;;15.10;99.90;;;;;;4875130;29;20269;-88
2021/06/07 04:03:22;;;;;;;18.02;9.18;;;15.10;99.90;;;;;;4877672;29;20052;-87
2021/06/07 04:05:50;;;;;;;19.42;8.63;;;15.10;99.90;;;;;;4905586;29;20090;-87
2021/06/07 04:08:18;;;;;;;17.13;8.70;;;15.10;99.90;;;;;;4895371;29;20064;-86
2021/06/07 04:10:46;;;;;;;18.65;9.73;;;15.10;99.90;;;;;;4893057;29;20064;-86
2021/06/07 04:13:15;;;;;;;17.75;8.90;;;15.10;99.90;;;;;;4893766;29;20060;-88
2021/06/07 04:15:42;;;;;;;19.15;9.13;;;15.10;99.90;;;;;;4876929;29;20049;-87
2021/06/07 04:18:11;;;;;;;17.27;8.90;;;15.10;99.90;;;;;;4900235;29;20417;-88
2021/06/07 04:20:39;;;;;;;18.30;9.98;;;15.10;99.90;;;;;;4891577;29;20053;-88
2021/06/07 04:23:08;;;;;;;18.60;9.70;;;15.10;99.90;;;;;;4917754;29;20063;-87
2021/06/07 04:25:36;;;;;;;15.57;8.38;;;14.50;99.90;;;;;;4884557;29;20533;-88
2021/06/07 04:28:05;;;;;;;19.42;9.07;;;15.10;99.90;;;;;;4895604;29;20505;-88
2021/06/07 04:30:34;;;;;;;20.25;8.98;;;15.10;99.90;;;;;;4894388;29;20052;-88
2021/06/07 04:33:04;;;;;;;19.33;10.32;;;15.10;99.90;;;;;;4878475;29;20056;-88
2021/06/07 04:35:33;;;;;;;19.50;9.48;;;15.10;99.90;;;;;;4897601;29;20083;-88
2021/06/07 04:38:00;;;;;;;17.15;9.10;;;15.10;99.90;;;;;;4859384;29;20049;-88
2021/06/07 04:40:32;;;;;;;17.63;9.40;;;15.10;99.90;;;;;;4859306;29;20064;-87
2021/06/07 04:43:02;;;;;;;15.57;8.77;;;15.10;99.90;;;;;;4891388;29;20561;-87
2021/06/07 04:45:31;;;;;;;;;;;14.40;99.90;;;;;;4897373;29;20048;-87
2021/06/07 04:47:59;;;;;;;17.23;8.60;;;15.20;99.90;;;;;;4888877;29;20280;-87
2021/06/07 04:50:30;;;;;;;18.55;8.80;;;15.20;99.90;;;;;;4863958;29;20501;-88
2021/06/07 04:53:02;;;;;;;21.30;10.65;;;15.20;99.90;;;;;;4888258;29;20064;-87
2021/06/07 04:55:43;;;;;;;25.45;12.98;;;15.30;99.90;;;;;;4892969;29;20409;-88
2021/06/07 04:58:14;;;;;;;18.00;8.40;;;15.20;99.90;;;;;;4888492;29;20056;-88
2021/06/07 05:00:45;;;;;;;;;;;15.30;99.90;;;;;;4875002;29;20052;-88
2021/06/07 05:03:13;;;;;;;17.20;9.60;;;15.30;99.90;;;;;;4890773;29;19923;-88
2021/06/07 05:05:41;;;;;;;19.65;9.80;;;15.40;99.90;;;;;;4867858;29;20413;-88
2021/06/07 05:08:09;;;;;;;23.10;10.82;;;15.40;99.90;;;;;;4878916;29;20064;-87
2021/06/07 05:10:37;;;;;;;22.17;11.30;;;15.40;99.90;;;;;;4879800;29;20063;-88
2021/06/07 05:13:05;;;;;;;20.98;9.82;;;15.50;99.90;;;;;;4914152;29;20049;-88
2021/06/07 05:15:33;;;;;;;21.85;10.60;;;15.50;99.90;;;;;;4895722;29;20053;-88
2021/06/07 05:18:01;;;;;;;22.92;11.30;;;15.60;99.90;;;;;;4896751;29;20481;-89
2021/06/07 05:20:30;;;;;;;18.70;11.18;;;15.60;99.90;;;;;;4894768;29;20413;-88
2021/06/07 05:23:07;;;;;;;21.52;10.80;;;15.70;99.90;;;;;;4854120;29;20060;-89
2021/06/07 05:25:36;;;;;;;20.83;9.23;;;15.70;99.90;;;;;;4877917;29;20429;-90
2021/06/07 05:28:06;;;;;;;22.52;9.45;;;15.70;99.90;;;;;;4877236;29;20052;-88
2021/06/07 05:30:36;;;;;;;19.90;10.55;;;15.80;99.90;;;;;;4876460;29;20045;-89
2021/06/07 05:33:04;;;;;;;18.17;8.70;;;15.80;99.90;;;;;;4879366;29;20055;-88
2021/06/07 05:35:37;;;;;;;20.40;9.85;;;15.90;99.90;;;;;;4879079;29;20637;-88
2021/06/07 05:38:06;;;;;;;18.33;9.40;;;15.90;99.90;;;;;;4875549;29;20056;-89
2021/06/07 05:40:35;;;;;;;14.25;7.85;;;15.90;99.90;;;;;;4887546;29;20594;-88
2021/06/07 05:43:03;;;;;;;17.42;8.63;;;15.90;99.90;;;;;;4876563;29;20053;-87
2021/06/07 05:45:32;;;;;;;14.43;7.65;;;16.00;99.90;;;;;;4878777;29;20414;-89
2021/06/07 05:48:01;;;;;;;15.40;8.20;;;16.10;99.90;;;;;;4878867;29;20052;-89
2021/06/07 05:50:31;;;;;;;17.58;7.85;;;16.10;99.90;;;;;;4895373;29;20053;-88
2021/06/07 05:53:03;;;;;;;17.27;8.93;;;16.20;99.90;;;;;;4900255;29;20064;-88
2021/06/07 05:55:35;;;;;;;15.20;6.85;;;16.30;99.90;;;;;;4895972;29;20049;-89
2021/06/07 05:58:09;;;;;;;13.15;7.57;;;16.30;99.90;;;;;;4879245;29;20056;-88
2021/06/07 06:00:40;;;;;;;14.82;6.78;;;16.40;99.90;;;;;;4888941;29;20060;-87
2021/06/07 06:03:08;;;;;;;16.02;7.13;;;16.50;99.90;;;;;;4896961;29;20067;-89
2021/06/07 06:05:38;;;;;;;12.30;6.32;;;16.50;99.90;;;;;;4900945;29;20057;-89
2021/06/07 06:08:07;;;;;;;16.15;7.07;;;16.60;99.90;;;;;;4880254;29;20044;-89
2021/06/07 06:10:37;;;;;;;12.80;6.25;;;16.60;99.90;;;;;;4897180;29;20060;-88
2021/06/07 06:13:11;;;;;;;11.43;6.00;;;16.70;99.90;;;;;;4877592;29;20606;-89
2021/06/07 06:15:39;;;;;;;10.48;5.40;;;16.70;99.90;;;;;;4870748;29;20053;-89
2021/06/07 06:18:07;;;;;;;14.50;6.43;;;16.80;99.90;;;;;;4865825;29;20060;-88
2021/06/07 06:20:35;;;;;;;11.45;5.43;;;16.90;99.90;;;;;;4876991;29;20053;-88
2021/06/07 06:23:03;;;;;;;10.25;5.72;;;16.90;99.90;;;;;;4895386;29;20064;-89
2021/06/07 06:25:31;;;;;;;11.63;5.97;;;17.00;99.90;;;;;;4895354;29;20056;-90
2021/06/07 06:28:04;;;;;;;9.30;4.88;;;17.10;99.90;;;;;;4880097;29;20068;-87
2021/06/07 06:30:32;;;;;;;10.23;5.10;;;17.10;99.90;;;;;;4892949;29;20057;-89
2021/06/07 06:33:01;;;;;;;8.73;4.38;;;17.20;99.90;;;;;;4894916;29;20533;-89
2021/06/07 06:35:30;;;;;;;8.38;4.30;;;17.20;99.90;;;;;;4879496;29;20061;-88
2021/06/07 06:37:58;;;;;;;10.75;5.72;;;17.30;99.90;;;;;;4900008;29;20064;-88
2021/06/07 06:40:29;;;;;;;7.47;3.88;;;17.30;99.90;;;;;;4894267;29;20048;-87
2021/06/07 06:42:58;;;;;;;7.20;4.07;;;17.40;99.90;;;;;;4896550;29;20063;-88
2021/06/07 06:45:28;;;;;;;7.97;3.53;;;17.50;99.90;;;;;;4875502;29;20049;-87
2021/06/07 06:47:56;;;;;;;4.30;2.20;;;17.60;99.90;;;;;;4900058;29;20063;-90
2021/06/07 06:50:32;;;;;;;3.63;2.28;;;17.60;99.90;;;;;;4880632;29;20037;-93
2021/06/07 06:53:12;;;;;;;3.13;2.17;;;17.70;99.90;;;;;;4866319;29;20064;-90
2021/06/07 06:55:46;;;;;;;2.55;2.05;;;17.70;99.90;;;;;;4880783;29;20049;-90
2021/06/07 06:58:14;;;;;;;2.45;2.10;;;17.80;99.90;;;;;;4878077;29;20076;-89
2021/06/07 07:00:48;;;;;;;2.60;1.77;;;17.90;99.90;;;;;;4853494;29;20523;-94
2021/06/07 07:03:19;;;;;;;3.83;1.90;;;17.70;99.90;;;;;;4867957;29;20469;-89
2021/06/07 07:05:50;;;;;;;3.97;2.30;;;18.10;99.90;;;;;;4870498;29;20521;-90
2021/06/07 07:08:21;;;;;;;;;;;18.10;99.90;;;;;;4864803;29;20056;-92
2021/06/07 07:10:49;;;;;;;3.25;2.25;;;18.10;99.90;;;;;;4887368;29;19934;-90
2021/06/07 07:13:18;;;;;;;4.70;1.83;;;18.30;99.90;;;;;;4894774;29;20060;-90
2021/06/07 07:15:47;;;;;;;4.85;2.60;;;18.30;99.90;;;;;;4865522;29;20052;-90
2021/06/07 07:18:15;;;;;;;3.03;1.95;;;18.40;99.90;;;;;;4844338;29;20056;-92
2021/06/07 07:20:44;;;;;;;5.07;2.83;;;18.40;99.90;;;;;;4863832;29;20052;-90
2021/06/07 07:23:12;;;;;;;3.25;1.60;;;18.50;99.90;;;;;;4860081;29;20056;-89
2021/06/07 07:25:40;;;;;;;8.20;1.95;;;18.50;99.90;;;;;;4846765;29;20045;-89
2021/06/07 07:28:10;;;;;;;3.78;1.85;;;18.60;99.90;;;;;;4874972;29;20053;-90
2021/06/07 07:30:38;;;;;;;8.15;2.83;;;18.70;99.90;;;;;;4879903;29;20064;-92
2021/06/07 07:33:12;;;;;;;2.25;1.92;;;18.80;99.90;;;;;;4893562;29;20040;-89
2021/06/07 07:35:41;;;;;;;2.83;1.48;;;18.80;99.90;;;;;;4880862;29;20636;-88
2021/06/07 07:38:09;;;;;;;1.75;1.42;;;18.90;99.90;;;;;;4884489;29;20055;-88
2021/06/07 07:40:41;;;;;;;2.85;1.67;;;19.00;99.90;;;;;;4871464;29;20049;-88
2021/06/07 07:43:09;;;;;;;2.58;1.77;;;19.00;99.90;;;;;;4910115;29;20509;-90
2021/06/07 07:45:39;;;;;;;4.13;2.05;;;19.00;99.90;;;;;;4880576;29;20579;-90
2021/06/07 07:48:08;;;;;;;2.00;1.30;;;19.10;99.90;;;;;;4877840;29;20056;-89
2021/06/07 07:50:36;;;;;;;1.83;1.42;;;19.20;99.90;;;;;;4851374;29;20063;-89
2021/06/07 07:53:05;;;;;;;1.90;1.30;;;19.30;99.90;;;;;;4868927;29;20057;-89
2021/06/07 07:55:33;;;;;;;1.48;1.35;;;19.40;99.90;;;;;;4866919;29;20060;-89
2021/06/07 07:58:06;;;;;;;3.63;1.80;;;19.50;99.90;;;;;;4895177;29;20053;-90
2021/06/07 08:00:34;;;;;;;4.13;1.58;;;19.50;99.90;;;;;;4900430;29;20049;-90
2021/06/07 08:03:02;;;;;;;5.07;2.05;;;19.60;99.90;;;;;;4875967;29;20061;-89
2021/06/07 08:05:32;;;;;;;3.38;2.13;;;19.60;99.90;;;;;;4902287;29;20049;-89
2021/06/07 08:08:00;;;;;;;4.50;1.73;;;19.60;99.90;;;;;;4877220;29;20061;-89
2021/06/07 08:10:28;;;;;;;11.00;2.22;;;19.70;99.90;;;;;;4892490;29;20060;-90
2021/06/07 08:12:56;;;;;;;2.28;1.40;;;19.70;99.90;;;;;;4879746;29;20063;-89
2021/06/07 08:15:24;;;;;;;3.40;1.48;;;19.90;99.90;;;;;;4846597;29;20052;-90
2021/06/07 08:17:52;;;;;;;8.70;3.22;;;20.00;99.90;;;;;;4841439;29;20056;-90
2021/06/07 08:20:20;;;;;;;2.55;1.52;;;20.10;99.90;;;;;;4879437;29;20516;-90
2021/06/07 08:22:54;;;;;;;4.47;1.80;;;20.10;99.90;;;;;;4862658;29;20048;-89
2021/06/07 08:25:24;;;;;;;7.45;1.77;;;20.20;99.90;;;;;;4895565;29;20057;-89
2021/06/07 08:27:52;;;;;;;4.70;1.77;;;20.30;99.90;;;;;;4862949;29;20533;-90
2021/06/07 08:30:21;;;;;;;5.78;1.60;;;20.50;99.90;;;;;;4866505;29;20052;-90
2021/06/07 08:32:49;;;;;;;4.32;1.80;;;20.60;99.90;;;;;;4862834;29;20442;-89
2021/06/07 08:35:17;;;;;;;4.75;2.58;;;20.70;99.90;;;;;;4861580;29;20067;-89
2021/06/07 08:37:45;;;;;;;5.20;1.60;;;20.90;99.90;;;;;;4859192;29;20421;-89
2021/06/07 08:40:15;;;;;;;2.50;1.77;;;21.10;99.90;;;;;;4891675;29;20063;-88
2021/06/07 08:42:44;;;;;;;3.00;1.80;;;21.20;99.90;;;;;;4860888;29;20056;-89
2021/06/07 08:45:22;;;;;;;3.38;1.50;;;21.20;99.90;;;;;;4873424;29;20176;-89
2021/06/07 08:47:52;;;;;;;3.22;1.88;;;21.30;99.90;;;;;;4870234;29;20075;-90
2021/06/07 08:50:26;;;;;;;1.58;1.40;;;21.40;99.90;;;;;;4874387;29;20576;-90
2021/06/07 08:52:54;;;;;;;2.65;1.40;;;21.50;99.90;;;;;;4859312;29;20072;-90
2021/06/07 08:55:23;;;;;;;1.98;1.48;;;21.60;99.90;;;;;;4862913;29;20071;-92
2021/06/07 08:57:53;;;;;;;2.75;1.48;;;21.60;99.90;;;;;;4860283;29;20076;-89
2021/06/07 09:00:25;;;;;;;2.17;1.20;;;21.60;99.90;;;;;;4860164;29;20048;-90
2021/06/07 09:03:08;;;;;;;2.00;1.30;;;21.60;99.90;;;;;;4880691;29;20056;-90
2021/06/07 09:05:39;;;;;;;6.75;1.52;;;21.60;99.90;;;;;;4852362;29;20053;-88
2021/06/07 09:08:17;;;;;;;5.32;1.67;;;21.60;99.90;;;;;;4865827;29;20044;-90
2021/06/07 09:10:49;;;;;;;6.43;1.75;;;21.60;99.90;;;;;;4860309;29;20536;-87
2021/06/07 09:13:19;;;;;;;4.25;1.42;;;21.60;99.90;;;;;;4873993;29;20055;-86
2021/06/07 09:15:52;;;;;;;3.40;1.55;;;21.60;99.90;;;;;;4876954;29;20056;-86
2021/06/07 09:18:36;;;;;;;4.13;1.90;;;21.70;99.90;;;;;;4849043;29;20060;-84
2021/06/07 09:21:12;;;;;;;7.30;1.90;;;21.80;99.90;;;;;;4875965;29;20059;-87
2021/06/07 09:23:50;;;;;;;4.28;1.67;;;21.80;99.90;;;;;;4878149;29;20500;-89
2021/06/07 09:26:38;;;;;;;5.53;2.03;;;21.80;99.90;;;;;;4887973;29;20056;-87
2021/06/07 09:29:06;;;;;;;5.50;2.28;;;21.80;99.90;;;;;;4885977;29;20049;-88
2021/06/07 09:31:38;;;;;;;3.95;1.83;;;21.80;99.90;;;;;;4879145;29;20480;-88
2021/06/07 09:34:07;;;;;;;3.13;1.80;;;21.80;99.90;;;;;;4854915;29;20560;-87
2021/06/07 09:36:43;;;;;;;3.67;2.03;;;21.90;99.90;;;;;;4850731;29;20053;-85
2021/06/07 09:39:20;;;;;;;2.50;1.80;;;21.90;99.90;;;;;;4872615;29;20049;-90
2021/06/07 09:41:59;;;;;;;6.45;2.63;;;21.80;99.90;;;;;;4870081;29;20053;-85
2021/06/07 09:44:47;;;;;;;7.07;2.75;;;21.90;99.90;;;;;;4870724;29;20057;-85
2021/06/07 09:47:25;;;;;;;3.05;2.00;;;22.00;99.90;;;;;;4868159;29;20569;-85
2021/06/07 09:49:59;;;;;;;16.88;5.15;;;22.10;99.90;;;;;;4855788;29;20490;-84
2021/06/07 09:52:34;;;;;;;3.40;1.63;;;22.20;99.90;;;;;;4869214;29;20053;-86
2021/06/07 09:55:23;;;;;;;6.35;3.20;;;22.30;99.90;;;;;;4868301;29;20056;-86
2021/06/07 09:58:04;;;;;;;5.90;2.60;;;22.50;99.90;;;;;;4864171;29;20088;-85
2021/06/07 10:00:48;;;;;;;5.75;2.90;;;22.60;99.90;;;;;;4869540;29;20045;-86
2021/06/07 10:03:23;;;;;;;6.28;2.53;;;22.80;99.90;;;;;;4871886;29;20425;-86
2021/06/07 10:05:54;;;;;;;6.20;2.17;;;22.90;99.60;;;;;;4859712;29;20057;-83
2021/06/07 10:08:23;;;;;;;;;;;22.90;99.50;;;;;;4867682;29;20536;-84
2021/06/07 10:10:53;;;;;;;7.47;2.15;;;23.00;98.30;;;;;;4853360;29;19942;-85
2021/06/07 10:13:21;;;;;;;7.93;2.03;;;23.00;99.10;;;;;;4869148;29;20057;-85
2021/06/07 10:15:50;;;;;;;7.28;2.50;;;23.00;98.70;;;;;;4838894;29;20057;-88
2021/06/07 10:18:20;;;;;;;7.35;2.60;;;23.10;98.50;;;;;;4853586;29;20052;-86
2021/06/07 10:20:50;;;;;;;6.03;2.70;;;23.10;98.10;;;;;;4868479;29;20064;-84
2021/06/07 10:23:27;;;;;;;3.80;2.20;;;23.10;97.60;;;;;;4846996;29;20057;-84
2021/06/07 10:25:58;;;;;;;9.45;2.70;;;23.10;97.40;;;;;;4851495;29;20068;-84
2021/06/07 10:28:29;;;;;;;7.40;3.28;;;23.10;98.00;;;;;;4869013;29;20068;-84
2021/06/07 10:31:08;;;;;;;6.55;2.42;;;23.30;98.00;;;;;;4870447;29;20520;-84
2021/06/07 10:33:39;;;;;;;7.47;2.80;;;23.30;97.40;;;;;;4876399;29;20048;-84
2021/06/07 10:36:22;;;;;;;7.70;2.50;;;23.20;96.80;;;;;;4893931;29;20057;-84
2021/06/07 10:38:51;;;;;;;6.82;2.97;;;23.20;96.90;;;;;;4894371;29;20086;-82
2021/06/07 10:41:25;;;;;;;8.80;3.10;;;23.30;97.00;;;;;;4865366;29;20064;-83
2021/06/07 10:43:55;;;;;;;5.22;2.38;;;23.40;97.00;;;;;;4901150;29;20413;-83
2021/06/07 10:46:34;;;;;;;5.50;2.13;;;23.60;97.10;;;;;;4898577;29;20049;-83
2021/06/07 10:49:24;;;;;;;5.55;2.15;;;23.70;96.60;;;;;;4881237;29;20060;-86
2021/06/07 10:52:15;;;;;;;4.15;2.25;;;23.70;96.90;;;;;;4892272;29;20057;-85
2021/06/07 10:55:00;;;;;;;7.78;2.25;;;23.80;96.70;;;;;;4892721;29;20048;-84
2021/06/07 10:57:33;;;;;;;4.10;2.28;;;23.80;96.90;;;;;;4893340;29;20048;-83
2021/06/07 11:00:14;;;;;;;7.47;3.08;;;23.90;97.00;;;;;;4895145;29;20405;-85
2021/06/07 11:02:45;;;;;;;8.65;2.70;;;24.00;96.40;;;;;;4893548;29;20060;-83
2021/06/07 11:05:19;;;;;;;5.35;2.25;;;23.80;96.70;;;;;;4862179;29;20048;-83
2021/06/07 11:08:29;;;;;;;4.55;2.53;;;23.70;96.60;;;;;;4892295;29;20063;-84
2021/06/07 11:11:01;;;;;;;5.90;3.67;;;23.70;96.70;;;;;;4874191;29;20082;-83
2021/06/07 11:13:33;;;;;;;8.80;2.75;;;23.70;97.00;;;;;;4871302;29;20056;-83
2021/06/07 11:16:03;;;;;;;3.78;1.77;;;23.80;96.70;;;;;;4888945;29;20068;-85
2021/06/07 11:18:38;;;;;;;5.73;2.60;;;23.90;96.50;;;;;;4877787;29;20527;-86
2021/06/07 11:21:09;;;;;;;9.18;2.97;;;24.00;96.30;;;;;;4876808;29;20561;-85
2021/06/07 11:23:43;;;;;;;6.93;2.50;;;24.10;95.70;;;;;;4876076;29;20056;-83
2021/06/07 11:26:32;;;;;;;7.90;2.45;;;24.00;95.90;;;;;;4887152;29;20828;-83
2021/06/07 11:29:00;;;;;;;6.13;2.45;;;24.00;95.60;;;;;;4868956;29;20052;-84
2021/06/07 11:31:34;;;;;;;7.63;2.50;;;23.90;94.90;;;;;;4887577;29;20059;-83
2021/06/07 11:34:08;;;;;;;5.00;2.75;;;24.00;95.20;;;;;;4889790;29;20052;-85
2021/06/07 11:36:41;;;;;;;9.73;3.10;;;24.00;94.90;;;;;;4889742;29;20402;-82
2021/06/07 11:39:44;;;;;;;7.53;2.78;;;24.00;95.20;;;;;;4887722;29;20060;-82
2021/06/07 11:42:15;;;;;;;8.75;3.55;;;24.10;94.80;;;;;;4889572;29;20045;-82
2021/06/07 11:45:09;;;;;;;5.55;2.45;;;24.30;95.00;;;;;;4891434;29;20558;-82
2021/06/07 11:47:36;;;;;;;6.22;2.92;;;24.50;95.40;;;;;;4871256;29;20333;-81
2021/06/07 11:50:10;;;;;;;1.77;1.67;;;24.60;94.80;;;;;;4874675;29;20071;-81
2021/06/07 11:52:47;;;;;;;10.52;3.13;;;24.70;94.70;;;;;;4875140;29;20076;-79
2021/06/07 11:55:27;;;;;;;6.28;2.10;;;24.70;94.50;;;;;;4874967;29;20065;-80
2021/06/07 11:58:18;;;;;;;7.68;2.67;;;24.70;94.30;;;;;;4889888;29;20062;-81
2021/06/07 12:00:52;;;;;;;4.60;2.35;;;24.60;94.30;;;;;;4890601;29;20520;-80
2021/06/07 12:03:26;;;;;;;5.32;2.80;;;24.70;94.40;;;;;;4878215;29;20065;-79
2021/06/07 12:05:54;;;;;;;4.78;2.67;;;24.60;94.20;;;;;;4886691;29;20383;-80
2021/06/07 12:08:24;;;;;;;5.93;2.30;;;24.60;94.20;;;;;;4874532;29;20135;-80
2021/06/07 12:11:03;;;;;;;7.77;2.83;;;24.40;94.60;;;;;;4889098;29;20416;-80
2021/06/07 12:13:36;;;;;;;4.28;1.85;;;24.20;94.60;;;;;;4888774;29;20049;-80
2021/06/07 12:16:15;;;;;;;5.57;2.38;;;24.10;95.10;;;;;;4890255;29;20063;-83
2021/06/07 12:18:45;;;;;;;9.20;4.13;;;24.20;95.10;;;;;;4886101;29;20056;-79
2021/06/07 12:21:20;;;;;;;7.32;2.85;;;24.30;95.00;;;;;;4882327;29;20052;-83
2021/06/07 12:24:15;;;;;;;10.32;2.92;;;24.10;94.80;;;;;;4887610;29;20409;-83
2021/06/07 12:29:30;;;;;;;6.57;2.50;;;24.10;95.10;;;;;;4874797;29;20056;-79
2021/06/07 12:32:16;;;;;;;9.63;2.78;;;24.20;95.00;;;;;;4888574;29;20064;-83
2021/06/07 12:34:59;;;;;;;4.13;2.15;;;24.30;95.00;;;;;;4888637;29;20068;-81
2021/06/07 12:37:32;;;;;;;5.55;2.40;;;24.60;94.20;;;;;;4875363;29;20063;-84
2021/06/07 12:40:15;;;;;;;3.95;2.30;;;24.60;93.00;;;;;;4875887;29;20044;-80
2021/06/07 12:42:45;;;;;;;5.15;2.83;;;24.80;93.50;;;;;;4888201;29;20079;-80
2021/06/07 12:45:16;;;;;;;10.00;4.30;;;24.90;93.60;;;;;;4891253;29;20044;-79
2021/06/07 12:47:45;;;;;;;5.97;2.65;;;25.00;93.60;;;;;;4888835;29;20052;-80
2021/06/07 12:50:23;;;;;;;4.20;2.03;;;25.00;93.60;;;;;;4892541;29;20063;-81
2021/06/07 12:52:54;;;;;;;9.68;2.60;;;25.20;93.60;;;;;;4891672;29;20567;-81
2021/06/07 12:55:25;;;;;;;6.15;2.65;;;25.30;93.80;;;;;;4885080;29;20068;-80
2021/06/07 12:57:54;;;;;;;7.28;2.03;;;25.50;93.60;;;;;;4884028;29;20070;-78
2021/06/07 13:00:29;;;;;;;4.22;2.15;;;25.60;93.00;;;;;;4890079;29;20564;-81
2021/06/07 13:02:59;;;;;;;4.25;1.98;;;25.60;92.90;;;;;;4871282;29;20063;-82
2021/06/07 13:05:33;;;;;;;5.43;2.95;;;26.00;92.60;;;;;;4889494;29;20048;-83
2021/06/07 13:08:21;;;;;;;5.53;2.92;;;25.90;92.40;;;;;;4871157;29;20432;-82
2021/06/07 13:11:02;;;;;;;8.80;3.20;;;25.80;92.10;;;;;;4873060;29;20063;-83